Time;durP1;ratioP1;P1;durP2;ratioP2;P2;SDS_P1;SDS_P2;PMS_P1;PMS_P2;Temp;Humidity;BMP_temperature;BMP_pressure;BME280_temperature;BME280_humidity;BME280_pressure;Samples;Min_cycle;Max_cycle;Signal;HPM_P1;HPM_P2
2022/02/25 00:01:13;;;;;;;;;;;;;;;-147.53;100.00;59759.91;5058143;28;19924;-80
2022/02/25 00:03:39;;;;;;;;;;;;;;;-147.53;100.00;59759.91;5040673;28;19924;-81
2022/02/25 00:06:04;;;;;;;;;;;;;;;-147.53;100.00;59759.91;5040397;28;19923;-80
2022/02/25 00:08:29;;;;;;;;;;;;;;;-147.53;100.00;59759.91;5057924;28;20008;-80
2022/02/25 00:10:54;;;;;;;;;;;;;;;-147.53;100.00;59759.91;5058146;28;19971;-81
2022/02/25 00:13:20;;;;;;;;;;;;;;;-147.53;100.00;59759.91;5040000;28;19940;-81
2022/02/25 00:15:45;;;;;;;;;;;;;;;-147.53;100.00;59759.91;5057870;28;20026;-81
2022/02/25 00:18:10;;;;;;;;;;;;;;;-147.53;100.00;59759.91;5041961;28;19921;-82
2022/02/25 00:20:35;;;;;;;;;;;;;;;-147.53;100.00;59759.91;5057992;28;19921;-80
2022/02/25 00:23:01;;;;;;;;;;;;;;;-147.53;100.00;59759.91;5040014;28;20313;-80
2022/02/25 00:25:27;;;;;;;;;;;;;;;-147.53;100.00;59759.91;5040478;28;19917;-80
2022/02/25 00:27:52;;;;;;;;;;;;;;;-147.53;100.00;59759.91;5058808;28;19921;-79
2022/02/25 00:30:17;;;;;;;;;;;;;;;-147.53;100.00;59759.91;5058080;28;19917;-80
2022/02/25 00:32:42;;;;;;;;;;;;;;;-147.53;100.00;59759.91;5039512;28;19924;-81
2022/02/25 00:35:08;;;;;;;;;;;;;;;-147.53;100.00;59759.91;5039981;28;20367;-81
2022/02/25 00:37:33;;;;;;;;;;;;;;;-147.53;100.00;59759.91;5040379;28;19917;-81
2022/02/25 00:39:58;;;;;;;;;;;;;;;-147.53;100.00;59759.91;5039954;28;19935;-81
2022/02/25 00:42:24;;;;;;;;;;;;;;;-147.53;100.00;59759.91;5039615;28;19916;-82
2022/02/25 00:44:49;;;;;;;;;;;;;;;-147.53;100.00;59759.91;5040030;28;20007;-79
2022/02/25 00:47:14;;;;;;;;;;;;;;;-147.53;100.00;59759.91;5057947;28;20394;-80
2022/02/25 00:49:40;;;;;;;;;;;;;;;-147.53;100.00;59759.91;5057288;28;19921;-80
2022/02/25 00:52:05;;;;;;;;;;;;;;;-147.53;100.00;59759.91;5057288;28;20476;-81
2022/02/25 00:54:31;;;;;;;;;;;;;;;-147.53;100.00;59759.91;5057378;28;19924;-81
2022/02/25 00:56:56;;;;;;;;;;;;;;;-147.53;100.00;59759.91;5039930;28;19924;-80
2022/02/25 00:59:21;;;;;;;;;;;;;;;-147.53;100.00;59759.91;5057669;28;20417;-80
2022/02/25 01:01:47;;;;;;;;;;;;;;;-147.53;100.00;59759.91;5039839;28;20008;-81
2022/02/25 01:04:13;;;;;;;;;;;;;;;-147.53;100.00;59759.91;5057937;28;19938;-81
2022/02/25 01:06:38;;;;;;;;;;;;;;;-147.53;100.00;59759.91;5056630;28;20378;-82
2022/02/25 01:09:04;;;;;;;;;;;;;;;-147.53;100.00;59759.91;5039338;28;19965;-81
2022/02/25 01:11:29;;;;;;;;;;;;;;;-147.53;100.00;59759.91;5056577;28;19920;-80
2022/02/25 01:13:55;;;;;;;;;;;;;;;-147.53;100.00;59759.91;5038853;28;20271;-80
2022/02/25 01:16:20;;;;;;;;;;;;;;;-147.53;100.00;59759.91;5039201;28;19920;-80
2022/02/25 01:18:45;;;;;;;;;;;;;;;-147.53;100.00;59759.91;5038683;28;20282;-80
2022/02/25 01:21:10;;;;;;;;;;;;;;;-147.53;100.00;59759.91;5056664;28;19925;-81
2022/02/25 01:23:36;;;;;;;;;;;;;;;-147.53;100.00;59759.91;5038970;28;19923;-80
2022/02/25 01:26:01;;;;;;;;;;;;;;;-147.53;100.00;59759.91;5038530;28;19916;-81
2022/02/25 01:28:27;;;;;;;;;;;;;;;-147.53;100.00;59759.91;5056941;28;19999;-79
2022/02/25 01:30:52;;;;;;;;;;;;;;;-147.53;100.00;59759.91;5056663;28;20363;-81
2022/02/25 01:33:17;;;;;;;;;;;;;;;-147.53;100.00;59759.91;5056957;28;19917;-80
2022/02/25 01:35:42;;;;;;;;;;;;;;;-147.53;100.00;59759.91;5038575;28;20383;-81
2022/02/25 01:38:08;;;;;;;;;;;;;;;-147.53;100.00;59759.91;5056452;28;20430;-81
2022/02/25 01:40:33;;;;;;;;;;;;;;;-147.53;100.00;59759.91;5056517;28;20393;-81
2022/02/25 01:43:01;;;;;;;;;;;;;;;-147.53;100.00;59759.91;5038691;28;19924;-81
2022/02/25 01:45:27;;;;;;;;;;;;;;;-147.53;100.00;59759.91;5038702;28;19970;-80
2022/02/25 01:47:52;;;;;;;;;;;;;;;-147.53;100.00;59759.91;5056730;28;19925;-80
2022/02/25 01:50:17;;;;;;;;;;;;;;;-147.53;100.00;59759.91;5038388;28;19920;-81
2022/02/25 01:52:59;;;;;;;;;;;;;;;-147.53;100.00;59759.91;5056187;28;19917;-79
2022/02/25 01:55:25;;;;;;;;;;;;;;;-147.53;100.00;59759.91;5038238;28;19944;-79
2022/02/25 01:57:50;;;;;;;;;;;;;;;-147.53;100.00;59759.91;5038315;28;19924;-81
2022/02/25 02:00:16;;;;;;;;;;;;;;;-147.53;100.00;59759.91;5038186;28;19964;-81
2022/02/25 02:02:42;;;;;;;;;;;;;;;-147.53;100.00;59759.91;5038992;28;20015;-83
2022/02/25 02:05:07;;;;;;;;;;;;;;;-147.53;100.00;59759.91;5038650;28;20413;-81
2022/02/25 02:07:32;;;;;;;;;;;;;;;-147.53;100.00;59759.91;5038619;28;20370;-81
2022/02/25 02:09:58;;;;;;;;;;;;;;;-147.53;100.00;59759.91;5055786;28;20007;-80
2022/02/25 02:12:23;;;;;;;;;;;;;;;-147.53;100.00;59759.91;5055622;28;20006;-82
2022/02/25 02:14:49;;;;;;;;;;;;;;;-147.53;100.00;59759.91;5055649;28;20043;-81
2022/02/25 02:17:14;;;;;;;;;;;;;;;-147.53;100.00;59759.91;5054976;28;19920;-82
2022/02/25 02:19:40;;;;;;;;;;;;;;;-147.53;100.00;59759.91;5055219;28;19921;-81
2022/02/25 02:22:06;;;;;;;;;;;;;;;-147.53;100.00;59759.91;5037107;28;19917;-80
2022/02/25 02:24:31;;;;;;;;;;;;;;;-147.53;100.00;59759.91;5055987;28;19916;-80
2022/02/25 02:26:57;;;;;;;;;;;;;;;-147.53;100.00;59759.91;5055883;28;19927;-81
2022/02/25 02:29:22;;;;;;;;;;;;;;;-147.53;100.00;59759.91;5038299;28;20006;-80
2022/02/25 02:31:47;;;;;;;;;;;;;;;-147.53;100.00;59759.91;5055868;28;19939;-81
2022/02/25 02:34:13;;;;;;;;;;;;;;;-147.53;100.00;59759.91;5038593;28;19984;-81
2022/02/25 02:36:39;;;;;;;;;;;;;;;-147.53;100.00;59759.91;5038508;28;19943;-81
2022/02/25 02:39:05;;;;;;;;;;;;;;;-147.53;100.00;59759.91;5038387;28;19917;-80
2022/02/25 02:41:30;;;;;;;;;;;;;;;-147.53;100.00;59759.91;5038442;28;20404;-81
2022/02/25 02:43:56;;;;;;;;;;;;;;;-147.53;100.00;59759.91;5038595;28;20520;-81
2022/02/25 02:46:21;;;;;;;;;;;;;;;-147.53;100.00;59759.91;5038534;28;20020;-80
2022/02/25 02:48:46;;;;;;;;;;;;;;;-147.53;100.00;59759.91;5038333;28;20051;-81
2022/02/25 02:51:12;;;;;;;;;;;;;;;-147.53;100.00;59759.91;5038707;28;20060;-80
2022/02/25 02:53:38;;;;;;;;;;;;;;;-147.53;100.00;59759.91;5038672;28;20003;-81
2022/02/25 02:56:03;;;;;;;;;;;;;;;-147.53;100.00;59759.91;5056637;28;19921;-80
2022/02/25 02:58:29;;;;;;;;;;;;;;;-147.53;100.00;59759.91;5038428;28;19917;-82
2022/02/25 03:00:54;;;;;;;;;;;;;;;-147.53;100.00;59759.91;5055860;28;19916;-80
2022/02/25 03:03:20;;;;;;;;;;;;;;;-147.53;100.00;59759.91;5038008;28;20316;-81
2022/02/25 03:05:45;;;;;;;;;;;;;;;-147.53;100.00;59759.91;5038200;28;19917;-80
2022/02/25 03:08:11;;;;;;;;;;;;;;;-147.53;100.00;59759.91;5038198;28;19984;-80
2022/02/25 03:10:37;;;;;;;;;;;;;;;-147.53;100.00;59759.91;5038746;28;20342;-80
2022/02/25 03:13:03;;;;;;;;;;;;;;;-147.53;100.00;59759.91;5038461;28;20108;-81
2022/02/25 03:15:28;;;;;;;;;;;;;;;-147.53;100.00;59759.91;5056448;28;19916;-82
2022/02/25 03:17:54;;;;;;;;;;;;;;;-147.53;100.00;59759.91;5038573;28;20374;-82
2022/02/25 03:20:19;;;;;;;;;;;;;;;-147.53;100.00;59759.91;5038712;28;19925;-81
2022/02/25 03:22:45;;;;;;;;;;;;;;;-147.53;100.00;59759.91;5038522;28;19921;-79
2022/02/25 03:25:13;;;;;;;;;;;;;;;-147.53;100.00;59759.91;5056377;28;20355;-81
2022/02/25 03:27:38;;;;;;;;;;;;;;;-147.53;100.00;59759.91;5055736;28;19917;-81
2022/02/25 03:30:04;;;;;;;;;;;;;;;-147.53;100.00;59759.91;5040183;28;20281;-81
2022/02/25 03:32:29;;;;;;;;;;;;;;;-147.53;100.00;59759.91;5041617;28;19917;-81
2022/02/25 03:34:54;;;;;;;;;;;;;;;-147.53;100.00;59759.91;5041692;28;20290;-81
2022/02/25 03:37:19;;;;;;;;;;;;;;;-147.53;100.00;59759.91;5041912;28;19943;-81
2022/02/25 03:39:45;;;;;;;;;;;;;;;-147.53;100.00;59759.91;5042138;28;20003;-82
2022/02/25 03:42:10;;;;;;;;;;;;;;;-147.53;100.00;59759.91;5059889;28;20252;-80
2022/02/25 03:44:36;;;;;;;;;;;;;;;-147.53;100.00;59759.91;5043528;28;19924;-81
2022/02/25 03:47:02;;;;;;;;;;;;;;;-147.53;100.00;59759.91;5044498;28;19917;-81
2022/02/25 03:49:27;;;;;;;;;;;;;;;-147.53;100.00;59759.91;5062243;28;19932;-81
2022/02/25 03:51:53;;;;;;;;;;;;;;;-147.53;100.00;59759.91;5044809;28;19967;-82
2022/02/25 03:54:18;;;;;;;;;;;;;;;-147.53;100.00;59759.91;5060889;28;19917;-83
2022/02/25 03:56:43;;;;;;;;;;;;;;;-147.53;100.00;59759.91;5043025;28;20302;-82
2022/02/25 03:59:08;;;;;;;;;;;;;;;-147.53;100.00;59759.91;5042891;28;19913;-81
2022/02/25 04:01:34;;;;;;;;;;;;;;;-147.53;100.00;59759.91;5042453;28;19917;-79
2022/02/25 04:03:59;;;;;;;;;;;;;;;-147.53;100.00;59759.91;5042130;28;20391;-81
2022/02/25 04:06:25;;;;;;;;;;;;;;;-147.53;100.00;59759.91;5059822;28;19917;-83
2022/02/25 04:08:51;;;;;;;;;;;;;;;-147.53;100.00;59759.91;5041972;28;19916;-83
2022/02/25 04:11:16;;;;;;;;;;;;;;;-147.53;100.00;59759.91;5042090;28;19920;-82
2022/02/25 04:13:42;;;;;;;;;;;;;;;-147.53;100.00;59759.91;5041533;28;20033;-81
2022/02/25 04:16:08;;;;;;;;;;;;;;;-147.53;100.00;59759.91;5041281;28;19977;-81
2022/02/25 04:18:33;;;;;;;;;;;;;;;-147.53;100.00;59759.91;5040654;28;19928;-81
2022/02/25 04:20:59;;;;;;;;;;;;;;;-147.53;100.00;59759.91;5059042;28;19924;-82
2022/02/25 04:23:24;;;;;;;;;;;;;;;-147.53;100.00;59759.91;5058630;28;19920;-82
2022/02/25 04:25:49;;;;;;;;;;;;;;;-147.53;100.00;59759.91;5041653;28;19917;-80
2022/02/25 04:28:14;;;;;;;;;;;;;;;-147.53;100.00;59759.91;5059019;28;20012;-81
2022/02/25 04:30:40;;;;;;;;;;;;;;;-147.53;100.00;59759.91;5042831;28;19972;-81
2022/02/25 04:33:05;;;;;;;;;;;;;;;-147.53;100.00;59759.91;5041020;28;19917;-80
2022/02/25 04:35:31;;;;;;;;;;;;;;;-147.53;100.00;59759.91;5041035;28;19917;-81
2022/02/25 04:37:56;;;;;;;;;;;;;;;-147.53;100.00;59759.91;5040844;28;19917;-81
2022/02/25 04:40:21;;;;;;;;;;;;;;;-147.53;100.00;59759.91;5040210;28;19924;-82
2022/02/25 04:42:46;;;;;;;;;;;;;;;-147.53;100.00;59759.91;5040852;28;20019;-81
2022/02/25 04:45:12;;;;;;;;;;;;;;;-147.53;100.00;59759.91;5041118;28;19922;-81
2022/02/25 04:47:38;;;;;;;;;;;;;;;-147.53;100.00;59759.91;5041384;28;19939;-80
2022/02/25 04:50:04;;;;;;;;;;;;;;;-147.53;100.00;59759.91;5059237;28;20411;-80
2022/02/25 04:52:29;;;;;;;;;;;;;;;-147.53;100.00;59759.91;5058973;28;19939;-80
2022/02/25 04:54:54;;;;;;;;;;;;;;;-147.53;100.00;59759.91;5060152;28;19923;-80
2022/02/25 04:57:19;;;;;;;;;;;;;;;-147.53;100.00;59759.91;5042277;28;19971;-82
2022/02/25 04:59:44;;;;;;;;;;;;;;;-147.53;100.00;59759.91;5042189;28;19916;-81
2022/02/25 05:02:10;;;;;;;;;;;;;;;-147.53;100.00;59759.91;5059881;28;19917;-80
2022/02/25 05:04:37;;;;;;;;;;;;;;;-147.53;100.00;59759.91;5041499;28;20447;-81
2022/02/25 05:07:03;;;;;;;;;;;;;;;-147.53;100.00;59759.91;5059255;28;19925;-81
2022/02/25 05:09:28;;;;;;;;;;;;;;;-147.53;100.00;59759.91;5059422;28;19917;-81
2022/02/25 05:11:54;;;;;;;;;;;;;;;-147.53;100.00;59759.91;5059318;28;19923;-81
2022/02/25 05:22:32;;;;;;;;;;;;;;;-147.53;100.00;59759.91;5059324;28;19943;-80
2022/02/25 05:24:57;;;;;;;;;;;;;;;-147.53;100.00;59759.91;5058907;28;19916;-80
2022/02/25 05:27:22;;;;;;;;;;;;;;;-147.53;100.00;59759.91;5058522;28;19920;-80
2022/02/25 05:29:47;;;;;;;;;;;;;;;-147.53;100.00;59759.91;5058955;28;19917;-80
2022/02/25 05:32:13;;;;;;;;;;;;;;;-147.53;100.00;59759.91;5058770;28;19960;-81
2022/02/25 05:34:38;;;;;;;;;;;;;;;-147.53;100.00;59759.91;5041106;28;19917;-80
2022/02/25 05:37:03;;;;;;;;;;;;;;;-147.53;100.00;59759.91;5040646;28;19924;-81
2022/02/25 05:39:29;;;;;;;;;;;;;;;-147.53;100.00;59759.91;5058824;28;19971;-80
2022/02/25 05:41:54;;;;;;;;;;;;;;;-147.53;100.00;59759.91;5040903;28;19940;-81
2022/02/25 05:44:19;;;;;;;;;;;;;;;-147.53;100.00;59759.91;5039620;28;20382;-81
2022/02/25 05:46:44;;;;;;;;;;;;;;;-147.53;100.00;59759.91;5035971;28;20367;-82
2022/02/25 05:49:10;;;;;;;;;;;;;;;-147.53;100.00;59759.91;5053875;28;19929;-81
2022/02/25 05:51:35;;;;;;;;;;;;;;;-147.53;100.00;59759.91;5035703;28;19924;-81
2022/02/25 05:54:00;;;;;;;;;;;;;;;-147.53;100.00;59759.91;5036131;28;20293;-82
2022/02/25 05:56:26;;;;;;;;;;;;;;;-147.53;100.00;59759.91;5055705;28;19916;-79
2022/02/25 05:58:52;;;;;;;;;;;;;;;-147.53;100.00;59759.91;5069287;28;19916;-83
2022/02/25 06:01:17;;;;;;;;;;;;;;;-147.53;100.00;59759.91;5058112;28;19920;-82
2022/02/25 06:03:42;;;;;;;;;;;;;;;-147.53;100.00;59759.91;5075631;28;20294;-85
2022/02/25 06:06:07;;;;;;;;;;;;;;;-147.53;100.00;59759.91;5055262;28;19960;-83
2022/02/25 06:08:34;;;;;;;;;;;;;;;-147.53;100.00;59759.91;5053938;28;20278;-83
2022/02/25 06:10:59;;;;;;;;;;;;;;;-147.53;100.00;59759.91;5053715;28;19916;-81
2022/02/25 06:13:24;;;;;;;;;;;;;;;-147.53;100.00;59759.91;5071190;28;19917;-81
2022/02/25 06:15:50;;;;;;;;;;;;;;;-147.53;100.00;59759.91;5071097;28;19917;-81
2022/02/25 06:18:17;;;;;;;;;;;;;;;-147.53;100.00;59759.91;5052824;28;19925;-81
2022/02/25 06:20:42;;;;;;;;;;;;;;;-147.53;100.00;59759.91;5071684;28;19985;-81
2022/02/25 06:23:08;;;;;;;;;;;;;;;-147.53;100.00;59759.91;5044735;28;20390;-82
2022/02/25 06:25:33;;;;;;;;;;;;;;;-147.53;100.00;59759.91;5053024;28;19920;-81
2022/02/25 06:27:58;;;;;;;;;;;;;;;-147.53;100.00;59759.91;5034917;28;19996;-80
2022/02/25 06:30:23;;;;;;;;;;;;;;;-147.53;100.00;59759.91;5034821;28;19919;-83
2022/02/25 06:32:49;;;;;;;;;;;;;;;-147.53;100.00;59759.91;5035252;28;20035;-82
2022/02/25 06:35:14;;;;;;;;;;;;;;;-147.53;100.00;59759.91;5035454;28;20011;-84
2022/02/25 06:37:40;;;;;;;;;;;;;;;-147.53;100.00;59759.91;5072465;28;19917;-86
2022/02/25 06:40:06;;;;;;;;;;;;;;;-147.53;100.00;59759.91;5056538;28;20281;-85
2022/02/25 06:42:31;;;;;;;;;;;;;;;-147.53;100.00;59759.91;5073146;28;19917;-82
2022/02/25 06:44:56;;;;;;;;;;;;;;;-147.53;100.00;59759.91;5073073;28;19923;-81
2022/02/25 06:47:21;;;;;;;;;;;;;;;-147.53;100.00;59759.91;5055129;28;19916;-87
2022/02/25 06:49:47;;;;;;;;;;;;;;;-147.53;100.00;59759.91;5074640;28;19925;-82
2022/02/25 06:52:12;;;;;;;;;;;;;;;-147.53;100.00;59759.91;5057991;28;19942;-83
2022/02/25 06:54:38;;;;;;;;;;;;;;;-147.53;100.00;59759.91;5056700;28;19917;-85
2022/02/25 06:57:03;;;;;;;;;;;;;;;-147.53;100.00;59759.91;5057891;28;19920;-84
2022/02/25 06:59:28;;;;;;;;;;;;;;;-147.53;100.00;59759.91;5056842;28;19919;-82
2022/02/25 07:01:53;;;;;;;;;;;;;;;-147.53;100.00;59759.91;5055179;28;19917;-83
2022/02/25 07:04:19;;;;;;;;;;;;;;;-147.53;100.00;59759.91;5055889;28;19959;-81
2022/02/25 07:06:44;;;;;;;;;;;;;;;-147.53;100.00;59759.91;5058274;28;19917;-82
2022/02/25 07:09:09;;;;;;;;;;;;;;;-147.53;100.00;59759.91;5057921;28;20370;-87
2022/02/25 07:11:36;;;;;;;;;;;;;;;-147.53;100.00;59759.91;5076064;28;20340;-83
2022/02/25 07:14:02;;;;;;;;;;;;;;;-147.53;100.00;59759.91;5058597;28;20278;-86
2022/02/25 07:16:27;;;;;;;;;;;;;;;-147.53;100.00;59759.91;5075598;28;19916;-83
2022/02/25 07:18:52;;;;;;;;;;;;;;;-147.53;100.00;59759.91;5074992;28;19955;-82
2022/02/25 07:21:17;;;;;;;;;;;;;;;-147.53;100.00;59759.91;5075146;28;19921;-84
2022/02/25 07:23:43;;;;;;;;;;;;;;;-147.53;100.00;59759.91;5058073;28;19921;-83
2022/02/25 07:26:08;;;;;;;;;;;;;;;-147.53;100.00;59759.91;5058194;28;20311;-82
2022/02/25 07:28:33;;;;;;;;;;;;;;;-147.53;100.00;59759.91;5057963;28;19916;-83
2022/02/25 07:30:58;;;;;;;;;;;;;;;-147.53;100.00;59759.91;5075896;28;19922;-83
2022/02/25 07:33:24;;;;;;;;;;;;;;;-147.53;100.00;59759.91;5075833;28;19924;-83
2022/02/25 07:35:49;;;;;;;;;;;;;;;-147.53;100.00;59759.91;5075762;28;19916;-83
2022/02/25 07:38:15;;;;;;;;;;;;;;;-147.53;100.00;59759.91;5075708;28;20001;-83
2022/02/25 07:40:41;;;;;;;;;;;;;;;-147.53;100.00;59759.91;5057748;28;20278;-84
2022/02/25 07:43:06;;;;;;;;;;;;;;;-147.53;100.00;59759.91;5057851;28;19916;-83
2022/02/25 07:45:31;;;;;;;;;;;;;;;-147.53;100.00;59759.91;5075606;28;19970;-83
2022/02/25 07:47:57;;;;;;;;;;;;;;;-147.53;100.00;59759.91;5075846;28;19921;-82
2022/02/25 07:50:22;;;;;;;;;;;;;;;-147.53;100.00;59759.91;5058288;28;20422;-83
2022/02/25 07:52:48;;;;;;;;;;;;;;;-147.53;100.00;59759.91;5057844;28;19970;-82
2022/02/25 07:55:14;;;;;;;;;;;;;;;-147.53;100.00;59759.91;5075713;28;20333;-81
2022/02/25 07:57:39;;;;;;;;;;;;;;;-147.53;100.00;59759.91;5057505;28;19939;-81
2022/02/25 08:00:06;;;;;;;;;;;;;;;-147.53;100.00;59759.91;5075407;28;20313;-81
2022/02/25 08:02:31;;;;;;;;;;;;;;;-147.53;100.00;59759.91;5075249;28;19917;-80
2022/02/25 08:04:56;;;;;;;;;;;;;;;-147.53;100.00;59759.91;5075433;28;19966;-81
2022/02/25 08:07:22;;;;;;;;;;;;;;;-147.53;100.00;59759.91;5075220;28;19938;-82
2022/02/25 08:09:47;;;;;;;;;;;;;;;-147.53;100.00;59759.91;5075503;28;19962;-81
2022/02/25 08:12:12;;;;;;;;;;;;;;;-147.53;100.00;59759.91;5057451;28;20027;-84
2022/02/25 08:14:40;;;;;;;;;;;;;;;-147.53;100.00;59759.91;5057643;28;19916;-82
2022/02/25 08:17:05;;;;;;;;;;;;;;;-147.53;100.00;59759.91;5074965;28;19930;-82
2022/02/25 08:19:30;;;;;;;;;;;;;;;-147.53;100.00;59759.91;5075800;28;19920;-84
2022/02/25 08:21:56;;;;;;;;;;;;;;;-147.53;100.00;59759.91;5075733;28;19916;-82
2022/02/25 08:24:21;;;;;;;;;;;;;;;-147.53;100.00;59759.91;5075272;28;19913;-82
2022/02/25 08:26:46;;;;;;;;;;;;;;;-147.53;100.00;59759.91;5075293;28;19924;-82
2022/02/25 08:29:12;;;;;;;;;;;;;;;-147.53;100.00;59759.91;5057543;28;19916;-83
2022/02/25 08:31:37;;;;;;;;;;;;;;;-147.53;100.00;59759.91;5057451;28;19924;-81
2022/02/25 08:34:03;;;;;;;;;;;;;;;-147.53;100.00;59759.91;5075313;28;20023;-82
2022/02/25 08:36:28;;;;;;;;;;;;;;;-147.53;100.00;59759.91;5075449;28;20366;-82
2022/02/25 08:38:53;;;;;;;;;;;;;;;-147.53;100.00;59759.91;5058360;28;19917;-83
2022/02/25 08:41:19;;;;;;;;;;;;;;;-147.53;100.00;59759.91;5057615;28;19916;-83
2022/02/25 08:43:47;;;;;;;;;;;;;;;-147.53;100.00;59759.91;5057741;28;19923;-83
2022/02/25 08:46:12;;;;;;;;;;;;;;;-147.53;100.00;59759.91;5075351;28;20259;-82
2022/02/25 08:48:37;;;;;;;;;;;;;;;-147.53;100.00;59759.91;5075438;28;19995;-82
2022/02/25 08:51:03;;;;;;;;;;;;;;;-147.53;100.00;59759.91;5074841;28;19924;-81
2022/02/25 08:53:28;;;;;;;;;;;;;;;-147.53;100.00;59759.91;5056785;28;19916;-81
2022/02/25 08:55:53;;;;;;;;;;;;;;;-147.53;100.00;59759.91;5074624;28;20382;-82
2022/02/25 08:58:20;;;;;;;;;;;;;;;-147.53;100.00;59759.91;5056717;28;19917;-81
2022/02/25 09:00:45;;;;;;;;;;;;;;;-147.53;100.00;59759.91;5074378;28;19924;-79
2022/02/25 09:03:12;;;;;;;;;;;;;;;-147.53;100.00;59759.91;5074219;28;19917;-81
2022/02/25 09:05:38;;;;;;;;;;;;;;;-147.53;100.00;59759.91;5073775;28;19916;-80
2022/02/25 09:08:04;;;;;;;;;;;;;;;-147.53;100.00;59759.91;5053287;28;20401;-80
2022/02/25 09:10:29;;;;;;;;;;;;;;;-147.53;100.00;59759.91;5038328;28;19962;-79
2022/02/25 09:12:54;;;;;;;;;;;;;;;-147.53;100.00;59759.91;5053698;28;20419;-79
2022/02/25 09:15:26;;;;;;;;;;;;;;;-147.53;100.00;59759.91;5036008;28;19916;-80
2022/02/25 09:17:56;;;;;;;;;;;;;;;-147.53;100.00;59759.91;5032513;28;20000;-80
2022/02/25 09:20:22;;;;;;;;;;;;;;;-147.53;100.00;59759.91;5033884;28;19921;-80
2022/02/25 09:22:47;;;;;;;;;;;;;;;-147.53;100.00;59759.91;5033586;28;20394;-80
2022/02/25 09:25:13;;;;;;;;;;;;;;;-147.53;100.00;59759.91;5033851;28;20408;-80
2022/02/25 09:27:39;;;;;;;;;;;;;;;-147.53;100.00;59759.91;5032937;28;19917;-80
2022/02/25 09:30:07;;;;;;;;;;;;;;;-147.53;100.00;59759.91;5032454;28;20267;-80
2022/02/25 09:32:32;;;;;;;;;;;;;;;-147.53;100.00;59759.91;5033494;28;19924;-80
2022/02/25 09:34:57;;;;;;;;;;;;;;;-147.53;100.00;59759.91;5032308;28;19917;-80
2022/02/25 09:37:23;;;;;;;;;;;;;;;-147.53;100.00;59759.91;5033344;28;20333;-80
2022/02/25 09:39:48;;;;;;;;;;;;;;;-147.53;100.00;59759.91;5033563;28;20371;-81
2022/02/25 09:42:14;;;;;;;;;;;;;;;-147.53;100.00;59759.91;5033311;28;20000;-80
2022/02/25 09:44:39;;;;;;;;;;;;;;;-147.53;100.00;59759.91;5032209;28;19956;-81
2022/02/25 09:47:04;;;;;;;;;;;;;;;-147.53;100.00;59759.91;5033365;28;19960;-80
2022/02/25 09:49:29;;;;;;;;;;;;;;;-147.53;100.00;59759.91;5033242;28;19971;-79
2022/02/25 09:51:56;;;;;;;;;;;;;;;-147.53;100.00;59759.91;5031462;28;19924;-80
2022/02/25 09:54:22;;;;;;;;;;;;;;;-147.53;100.00;59759.91;5033215;28;19917;-81
2022/02/25 09:56:48;;;;;;;;;;;;;;;-147.53;100.00;59759.91;5031904;28;20016;-83
2022/02/25 09:59:13;;;;;;;;;;;;;;;-147.53;100.00;59759.91;5032951;28;20020;-83
2022/02/25 10:01:39;;;;;;;;;;;;;;;-147.53;100.00;59759.91;5031830;28;19918;-83
2022/02/25 10:04:12;;;;;;;;;;;;;;;-147.53;100.00;59759.91;5031884;28;19928;-84
2022/02/25 10:06:37;;;;;;;;;;;;;;;-147.53;100.00;59759.91;5032918;28;20357;-83
2022/02/25 10:09:13;;;;;;;;;;;;;;;-147.53;100.00;59759.91;5032977;28;19921;-83
2022/02/25 10:11:58;;;;;;;;;;;;;;;-147.53;100.00;59759.91;5032940;28;19917;-84
2022/02/25 10:14:28;;;;;;;;;;;;;;;-147.53;100.00;59759.91;5031885;28;20304;-83
2022/02/25 10:17:23;;;;;;;;;;;;;;;-147.53;100.00;59759.91;5031434;28;19928;-82
2022/02/25 10:19:50;;;;;;;;;;;;;;;-147.53;100.00;59759.91;5015470;28;19931;-89
2022/02/25 10:22:23;;;;;;;;;;;;;;;-147.53;100.00;59759.91;5030952;28;19928;-84
2022/02/25 10:24:50;;;;;;;;;;;;;;;-147.53;100.00;59759.91;5031010;28;20283;-86
2022/02/25 10:27:38;;;;;;;;;;;;;;;-147.53;100.00;59759.91;5032635;28;19913;-87
2022/02/25 10:30:14;;;;;;;;;;;;;;;-147.53;100.00;59759.91;5021473;28;20019;-86
2022/02/25 10:32:40;;;;;;;;;;;;;;;-147.53;100.00;59759.91;5038115;28;19921;-86
2022/02/25 10:35:26;;;;;;;;;;;;;;;-147.53;100.00;59759.91;5039172;28;19917;-86
2022/02/25 10:37:54;;;;;;;;;;;;;;;-147.53;100.00;59759.91;5047678;28;19912;-87
2022/02/25 10:40:19;;;;;;;;;;;;;;;-147.53;100.00;59759.91;5039014;28;19921;-87
2022/02/25 10:42:45;;;;;;;;;;;;;;;-147.53;100.00;59759.91;5047867;28;20264;-84
2022/02/25 10:45:10;;;;;;;;;;;;;;;-147.53;100.00;59759.91;5047441;28;19924;-86
2022/02/25 10:47:35;;;;;;;;;;;;;;;-147.53;100.00;59759.91;5045685;28;19913;-85
2022/02/25 10:50:15;;;;;;;;;;;;;;;-147.53;100.00;59759.91;5039832;28;19931;-86
2022/02/25 10:52:45;;;;;;;;;;;;;;;-147.53;100.00;59759.91;5046723;28;19917;-86
2022/02/25 10:55:18;;;;;;;;;;;;;;;-147.53;100.00;59759.91;5042370;28;20154;-85
2022/02/25 10:57:43;;;;;;;;;;;;;;;-147.53;100.00;59759.91;5038228;28;19920;-84
2022/02/25 11:00:11;;;;;;;;;;;;;;;-147.53;100.00;59759.91;5038489;28;20394;-84
2022/02/25 11:02:41;;;;;;;;;;;;;;;-147.53;100.00;59759.91;5043403;28;19928;-84
2022/02/25 11:05:08;;;;;;;;;;;;;;;-147.53;100.00;59759.91;5042586;28;20343;-87
2022/02/25 11:07:35;;;;;;;;;;;;;;;-147.53;100.00;59759.91;5048862;28;19928;-85
2022/02/25 11:10:00;;;;;;;;;;;;;;;-147.53;100.00;59759.91;5050913;28;19917;-85
2022/02/25 11:12:28;;;;;;;;;;;;;;;-147.53;100.00;59759.91;5049813;28;20290;-86
2022/02/25 11:14:53;;;;;;;;;;;;;;;-147.53;100.00;59759.91;5050717;28;19988;-86
2022/02/25 11:17:19;;;;;;;;;;;;;;;-147.53;100.00;59759.91;4994051;28;1790783;-85
2022/02/25 11:19:46;;;;;;;;;;;;;;;-147.53;100.00;59759.91;5053386;28;19921;-84
2022/02/25 11:22:12;;;;;;;;;;;;;;;-147.53;100.00;59759.91;5071135;28;19917;-85
2022/02/25 11:24:38;;;;;;;;;;;;;;;-147.53;100.00;59759.91;5053284;28;19923;-85
2022/02/25 11:27:04;;;;;;;;;;;;;;;-147.53;100.00;59759.91;5053665;28;19920;-85
2022/02/25 11:29:31;;;;;;;;;;;;;;;-147.53;100.00;59759.91;5055791;28;20416;-85
2022/02/25 11:31:59;;;;;;;;;;;;;;;-147.53;100.00;59759.91;5077891;28;19917;-85
2022/02/25 11:34:24;;;;;;;;;;;;;;;-147.53;100.00;59759.91;5057818;28;19973;-85
2022/02/25 11:36:49;;;;;;;;;;;;;;;-147.53;100.00;59759.91;5073072;28;19917;-85
2022/02/25 11:39:25;;;;;;;;;;;;;;;-147.53;100.00;59759.91;5055467;28;20331;-86
2022/02/25 11:41:51;;;;;;;;;;;;;;;-147.53;100.00;59759.91;5054906;28;19955;-85
2022/02/25 11:44:16;;;;;;;;;;;;;;;-147.53;100.00;59759.91;5054959;28;19916;-86
2022/02/25 11:46:42;;;;;;;;;;;;;;;-147.53;100.00;59759.91;5072801;28;19917;-85
2022/02/25 11:49:07;;;;;;;;;;;;;;;-147.53;100.00;59759.91;5054936;28;19921;-84
2022/02/25 11:51:41;;;;;;;;;;;;;;;-147.53;100.00;59759.91;5057460;28;20011;-86
2022/02/25 11:54:26;;;;;;;;;;;;;;;-147.53;100.00;59759.91;5058583;28;19916;-84
2022/02/25 11:57:04;;;;;;;;;;;;;;;-147.53;100.00;59759.91;5057414;28;19924;-82
2022/02/25 11:59:32;;;;;;;;;;;;;;;-147.53;100.00;59759.91;5059639;28;19923;-86
2022/02/25 12:02:15;;;;;;;;;;;;;;;-147.53;100.00;59759.91;5076460;28;19917;-86
2022/02/25 12:05:00;;;;;;;;;;;;;;;-147.53;100.00;59759.91;5076044;28;19921;-85
2022/02/25 12:07:33;;;;;;;;;;;;;;;-147.53;100.00;59759.91;5056853;28;20441;-82
2022/02/25 12:09:59;;;;;;;;;;;;;;;-147.53;100.00;59759.91;5058542;28;19952;-87
2022/02/25 12:12:24;;;;;;;;;;;;;;;-147.53;100.00;59759.91;5059455;28;19916;-88
2022/02/25 12:14:59;;;;;;;;;;;;;;;-147.53;100.00;59759.91;5076860;28;19993;-87
2022/02/25 12:17:34;;;;;;;;;;;;;;;-147.53;100.00;59759.91;5075654;28;20377;-85
2022/02/25 12:20:04;;;;;;;;;;;;;;;-147.53;100.00;59759.91;5057822;28;19924;-85
2022/02/25 12:22:45;;;;;;;;;;;;;;;-147.53;100.00;59759.91;5057891;28;19916;-85